createdAt,value
2018-08-18T00:01:54.146Z,20.60
2018-08-18T00:04:22.991Z,20.60
2018-08-18T00:06:51.833Z,20.40
2018-08-18T00:09:20.676Z,20.40
2018-08-18T00:11:49.533Z,20.40
2018-08-18T00:14:18.368Z,20.40
2018-08-18T00:16:47.970Z,20.30
2018-08-18T00:19:16.817Z,20.30
2018-08-18T00:21:45.653Z,20.30
2018-08-18T00:24:15.230Z,20.20
2018-08-18T00:26:44.066Z,20.20
2018-08-18T00:29:12.929Z,20.20
2018-08-18T00:31:41.785Z,20.20
2018-08-18T00:34:10.677Z,20.20
2018-08-18T00:36:39.475Z,20.20
2018-08-18T00:39:08.310Z,20.10
2018-08-18T00:41:37.163Z,20.00
2018-08-18T00:46:35.435Z,20.00
2018-08-18T00:49:04.277Z,20.00
2018-08-18T00:51:33.862Z,19.90
2018-08-18T00:54:02.738Z,19.90
2018-08-18T00:56:31.570Z,19.80
2018-08-18T00:59:00.416Z,19.80
2018-08-18T01:01:29.271Z,19.80
2018-08-18T01:03:58.102Z,19.80
2018-08-18T01:08:56.384Z,19.80
2018-08-18T01:11:25.360Z,19.70
2018-08-18T01:13:54.120Z,19.70
2018-08-18T01:16:22.889Z,19.70
2018-08-18T01:18:51.735Z,19.80
2018-08-18T01:21:20.594Z,19.70
2018-08-18T01:23:49.425Z,19.70
2018-08-18T01:26:18.262Z,19.80
2018-08-18T01:28:47.105Z,19.70
2018-08-18T01:31:15.942Z,19.70
2018-08-18T01:33:44.784Z,19.70
2018-08-18T01:36:13.621Z,19.70
2018-08-18T01:38:42.461Z,19.60
2018-08-18T01:41:13.187Z,19.50
2018-08-18T01:43:42.076Z,19.50
2018-08-18T01:46:10.871Z,19.60
2018-08-18T01:48:39.697Z,19.50
2018-08-18T01:51:08.578Z,19.60
2018-08-18T01:53:37.439Z,19.50
2018-08-18T01:56:06.265Z,19.60
2018-08-18T01:58:35.854Z,19.50
2018-08-18T02:01:04.694Z,19.50
2018-08-18T02:03:33.527Z,19.50
2018-08-18T02:06:02.367Z,19.40
2018-08-18T02:08:31.211Z,19.40
2018-08-18T02:11:00.040Z,19.30
2018-08-18T02:13:28.883Z,19.30
2018-08-18T02:15:57.717Z,19.20
2018-08-18T02:18:26.552Z,19.20
2018-08-18T02:20:55.401Z,19.10
2018-08-18T02:23:24.239Z,19.20
2018-08-18T02:25:53.083Z,19.10
2018-08-18T02:28:21.938Z,19.10
2018-08-18T02:30:50.785Z,19.10
2018-08-18T02:33:19.618Z,19.20
2018-08-18T02:35:48.456Z,19.10
2018-08-18T02:38:17.288Z,19.10
2018-08-18T02:40:46.136Z,19.10
2018-08-18T02:43:14.970Z,19.20
2018-08-18T02:45:44.555Z,19.10
2018-08-18T02:48:13.403Z,19.20
2018-08-18T02:50:42.239Z,19.20
2018-08-18T02:53:11.091Z,19.10
2018-08-18T02:55:39.998Z,19.20
2018-08-18T02:58:08.841Z,19.20
2018-08-18T03:00:37.686Z,19.20
2018-08-18T03:03:06.526Z,19.20
2018-08-18T03:05:35.382Z,19.10
2018-08-18T03:08:04.964Z,19.10
2018-08-18T03:10:33.843Z,19.10
2018-08-18T03:13:02.681Z,19.10
2018-08-18T03:15:31.523Z,19.20
2018-08-18T03:18:00.360Z,19.10
2018-08-18T03:20:29.936Z,19.00
2018-08-18T03:22:58.779Z,19.00
2018-08-18T03:25:27.624Z,18.90
2018-08-18T03:27:57.209Z,18.80
2018-08-18T03:30:26.063Z,18.80
2018-08-18T03:32:54.918Z,18.70
2018-08-18T03:35:24.508Z,18.70
2018-08-18T03:37:53.365Z,18.70
2018-08-18T03:40:22.223Z,18.70
2018-08-18T03:42:51.099Z,18.70
2018-08-18T03:45:19.912Z,18.70
2018-08-18T03:47:48.781Z,18.70
2018-08-18T03:50:18.364Z,18.80
2018-08-18T03:52:47.194Z,18.70
2018-08-18T03:55:16.042Z,18.70
2018-08-18T03:57:45.647Z,18.70
2018-08-18T04:00:14.508Z,18.70
2018-08-18T04:02:43.360Z,18.80
2018-08-18T04:05:12.218Z,18.70
2018-08-18T04:07:41.100Z,18.70
2018-08-18T04:10:10.706Z,18.70
2018-08-18T04:12:39.563Z,18.70
2018-08-18T04:15:08.454Z,18.70
2018-08-18T04:17:37.330Z,18.70
2018-08-18T04:20:06.180Z,18.70
2018-08-18T04:22:35.758Z,18.70
2018-08-18T04:25:04.640Z,18.60
2018-08-18T04:27:33.465Z,18.50
2018-08-18T04:30:02.316Z,18.50
2018-08-18T04:32:31.149Z,18.50
2018-08-18T04:35:00.741Z,18.50
2018-08-18T04:37:29.579Z,18.40
2018-08-18T04:42:42.787Z,18.50
2018-08-18T04:45:12.399Z,18.50
2018-08-18T04:47:41.256Z,18.70
2018-08-18T04:50:10.104Z,18.70
2018-08-18T04:52:38.942Z,18.70
2018-08-18T04:55:07.800Z,18.70
2018-08-18T04:57:36.648Z,18.70
2018-08-18T05:00:06.228Z,18.70
2018-08-18T05:02:35.813Z,18.80
2018-08-18T05:05:04.699Z,18.80
2018-08-18T05:07:33.510Z,18.80
2018-08-18T05:10:02.351Z,18.80
2018-08-18T05:12:31.200Z,18.70
2018-08-18T05:15:00.036Z,18.70
2018-08-18T05:17:28.876Z,18.80
2018-08-18T05:19:57.721Z,18.80
2018-08-18T05:22:26.566Z,18.80
2018-08-18T05:24:55.429Z,18.90
2018-08-18T05:27:24.258Z,18.80
2018-08-18T05:29:53.116Z,18.80
2018-08-18T05:32:21.949Z,18.80
2018-08-18T05:34:50.785Z,18.90
2018-08-18T05:37:20.375Z,18.80
2018-08-18T05:39:49.214Z,18.80
2018-08-18T05:42:18.049Z,18.90
2018-08-18T05:44:46.888Z,18.90
2018-08-18T05:47:15.729Z,18.90
2018-08-18T05:49:44.577Z,19.00
2018-08-18T05:52:13.418Z,19.00
2018-08-18T05:54:42.256Z,19.10
2018-08-18T05:57:11.110Z,19.10
2018-08-18T05:59:39.975Z,19.10
2018-08-18T06:02:08.834Z,19.20
2018-08-18T06:04:37.679Z,19.20
2018-08-18T06:07:06.517Z,19.20
2018-08-18T06:09:36.376Z,19.20
2018-08-18T06:12:05.732Z,19.30
2018-08-18T06:14:34.552Z,19.30
2018-08-18T06:17:03.424Z,19.30
2018-08-18T06:19:32.257Z,19.30
2018-08-18T06:22:01.090Z,19.30
2018-08-18T06:24:29.934Z,19.40
2018-08-18T06:26:58.781Z,19.40
2018-08-18T06:29:28.370Z,19.50
2018-08-18T06:31:57.250Z,19.50
2018-08-18T06:34:26.129Z,19.50
2018-08-18T06:36:54.927Z,19.60
2018-08-18T06:39:24.555Z,19.60
2018-08-18T06:41:54.199Z,19.70
2018-08-18T06:44:23.008Z,19.70
2018-08-18T06:46:51.852Z,19.80
2018-08-18T06:49:20.688Z,19.80
2018-08-18T06:51:49.530Z,20.00
2018-08-18T06:54:18.401Z,20.00
2018-08-18T06:56:47.275Z,20.00
2018-08-18T06:59:16.094Z,20.10
2018-08-18T07:01:44.940Z,20.10
2018-08-18T07:04:13.786Z,20.10
2018-08-18T07:06:42.649Z,20.10
2018-08-18T07:09:11.516Z,20.10
2018-08-18T07:11:41.436Z,20.30
2018-08-18T07:14:09.915Z,20.30
2018-08-18T07:16:39.491Z,20.30
2018-08-18T07:19:08.346Z,20.30
2018-08-18T07:21:37.937Z,20.30
2018-08-18T07:24:06.790Z,20.50
2018-08-18T07:26:35.633Z,20.50
2018-08-18T07:29:04.557Z,20.60
2018-08-18T07:31:33.327Z,20.70
2018-08-18T07:34:02.174Z,20.80
2018-08-18T07:36:31.018Z,20.80
2018-08-18T07:38:59.889Z,20.80
2018-08-18T07:41:28.724Z,20.90
2018-08-18T07:43:57.552Z,21.00
2018-08-18T07:46:26.452Z,21.20
2018-08-18T07:48:55.258Z,21.20
2018-08-18T07:51:24.102Z,21.20
2018-08-18T07:53:52.943Z,21.20
2018-08-18T07:56:21.782Z,21.40
2018-08-18T07:58:50.635Z,21.30
2018-08-18T08:01:19.480Z,21.40
2018-08-18T08:03:48.318Z,21.60
2018-08-18T08:06:17.156Z,21.60
2018-08-18T08:08:46.749Z,21.60
2018-08-18T08:11:15.681Z,21.60
2018-08-18T08:13:44.526Z,21.60
2018-08-18T08:16:13.376Z,21.70
2018-08-18T08:18:42.228Z,21.80
2018-08-18T08:21:11.078Z,21.80
2018-08-18T08:23:39.930Z,22.00
2018-08-18T08:26:08.811Z,22.10
2018-08-18T08:28:37.654Z,22.20
2018-08-18T08:31:06.493Z,22.10
2018-08-18T08:33:35.325Z,22.10
2018-08-18T08:36:04.169Z,22.20
2018-08-18T08:38:33.754Z,22.30
2018-08-18T08:41:02.621Z,22.30
2018-08-18T08:43:31.466Z,22.40
2018-08-18T08:46:01.048Z,22.50
2018-08-18T08:48:29.913Z,22.50
2018-08-18T08:50:58.766Z,22.50
2018-08-18T08:53:27.610Z,22.80
2018-08-18T08:55:56.475Z,22.90
2018-08-18T08:58:25.312Z,22.90
2018-08-18T09:00:54.904Z,23.00
2018-08-18T09:03:24.515Z,23.20
2018-08-18T09:05:53.371Z,23.40
2018-08-18T09:08:22.211Z,23.40
2018-08-18T09:10:51.091Z,23.30
2018-08-18T09:13:19.953Z,23.20
2018-08-18T09:15:48.798Z,23.20
2018-08-18T09:18:17.641Z,23.20
2018-08-18T09:20:46.488Z,23.40
2018-08-18T09:23:15.337Z,23.50
2018-08-18T09:25:44.185Z,23.60
2018-08-18T09:28:13.033Z,23.60
2018-08-18T09:30:41.882Z,23.60
2018-08-18T09:33:10.736Z,23.80
2018-08-18T09:35:39.584Z,23.90
2018-08-18T09:38:08.433Z,24.10
2018-08-18T09:40:37.264Z,24.10
2018-08-18T09:43:06.103Z,24.30
2018-08-18T09:45:34.959Z,24.10
2018-08-18T09:48:04.610Z,24.10
2018-08-18T09:50:34.147Z,24.30
2018-08-18T09:53:02.994Z,24.40
2018-08-18T09:55:31.839Z,24.40
2018-08-18T09:58:01.436Z,24.40
2018-08-18T10:00:30.281Z,24.50
2018-08-18T10:02:59.145Z,24.50
2018-08-18T10:05:27.982Z,24.60
2018-08-18T10:07:56.815Z,24.60
2018-08-18T10:10:26.395Z,24.70
2018-08-18T10:12:55.267Z,24.70
2018-08-18T10:15:24.192Z,24.70
2018-08-18T10:17:52.945Z,24.60
2018-08-18T10:20:21.783Z,24.80
2018-08-18T10:22:50.632Z,24.80
2018-08-18T10:25:19.476Z,24.90
2018-08-18T10:27:48.348Z,24.80
2018-08-18T10:30:17.204Z,25.10
2018-08-18T10:35:27.307Z,25.40
2018-08-18T10:37:56.173Z,25.50
2018-08-18T10:40:25.049Z,25.50
2018-08-18T10:42:53.886Z,25.50
2018-08-18T10:45:22.741Z,25.60
2018-08-18T10:47:51.611Z,25.60
2018-08-18T10:50:20.420Z,25.50
2018-08-18T10:52:54.895Z,25.50
2018-08-18T10:55:23.740Z,25.70
2018-08-18T10:57:55.546Z,25.70
2018-08-18T11:00:29.623Z,25.50
2018-08-18T11:02:58.863Z,25.60
2018-08-18T11:05:26.512Z,25.50
2018-08-18T11:07:55.366Z,25.80
2018-08-18T11:10:25.300Z,26.10
2018-08-18T11:12:56.633Z,26.20
2018-08-18T11:15:24.203Z,26.30
2018-08-18T11:17:53.054Z,26.20
2018-08-18T11:20:21.912Z,26.40
2018-08-18T11:22:50.769Z,26.60
2018-08-18T11:25:20.432Z,26.80
2018-08-18T11:27:49.266Z,26.80
2018-08-18T11:30:18.112Z,26.90
2018-08-18T11:32:46.948Z,26.90
2018-08-18T11:35:16.557Z,27.00
2018-08-18T11:37:45.361Z,26.90
2018-08-18T11:40:14.955Z,26.70
2018-08-18T11:42:43.819Z,26.90
2018-08-18T11:45:12.659Z,26.70
2018-08-18T11:47:41.500Z,26.70
2018-08-18T11:50:10.347Z,26.90
2018-08-18T11:52:39.186Z,26.80
2018-08-18T11:55:08.034Z,26.80
2018-08-18T11:57:36.884Z,26.90
2018-08-18T12:02:35.214Z,27.10
2018-08-18T12:05:04.066Z,27.10
2018-08-18T12:07:32.906Z,27.00
2018-08-18T12:10:01.788Z,27.10
2018-08-18T12:12:30.626Z,27.30
2018-08-18T12:14:59.462Z,27.40
2018-08-18T12:17:29.044Z,27.40
2018-08-18T12:19:57.894Z,27.30
2018-08-18T12:22:26.989Z,27.30
2018-08-18T12:24:56.340Z,27.30
2018-08-18T12:27:25.289Z,27.30
2018-08-18T12:29:54.227Z,27.60
2018-08-18T12:32:22.886Z,27.90
2018-08-18T12:34:51.747Z,28.00
2018-08-18T12:37:20.604Z,27.80
2018-08-18T12:39:49.422Z,27.70
2018-08-18T12:42:18.288Z,27.70
2018-08-18T12:44:47.882Z,27.80
2018-08-18T12:47:16.735Z,27.90
2018-08-18T12:49:45.607Z,27.80
2018-08-18T12:52:14.413Z,28.00
2018-08-18T12:54:43.252Z,28.10
2018-08-18T12:57:12.103Z,28.40
2018-08-18T12:59:40.948Z,28.20
2018-08-18T13:02:09.785Z,28.40
2018-08-18T13:04:38.627Z,28.50
2018-08-18T13:07:08.215Z,28.70
2018-08-18T13:09:37.071Z,28.70
2018-08-18T13:12:05.960Z,28.80
2018-08-18T13:14:34.764Z,28.70
2018-08-18T13:17:03.637Z,28.70
2018-08-18T13:19:32.444Z,29.00
2018-08-18T13:22:01.485Z,29.20
2018-08-18T13:24:30.323Z,29.20
2018-08-18T13:26:59.158Z,29.20
2018-08-18T13:29:28.011Z,29.40
2018-08-18T13:31:56.846Z,29.30
2018-08-18T13:34:25.711Z,29.50
2018-08-18T13:36:54.553Z,29.70
2018-08-18T13:39:23.398Z,29.70
2018-08-18T13:41:53.018Z,29.80
2018-08-18T13:44:21.863Z,29.40
2018-08-18T13:46:50.713Z,29.50
2018-08-18T13:49:19.547Z,29.50
2018-08-18T13:51:48.432Z,29.70
2018-08-18T13:54:17.304Z,30.00
2018-08-18T13:56:45.366Z,29.90
2018-08-18T13:59:14.202Z,29.80
2018-08-18T14:01:43.045Z,29.80
2018-08-18T14:04:11.895Z,29.60
2018-08-18T14:06:40.750Z,29.70
2018-08-18T14:09:09.586Z,29.80
2018-08-18T14:11:38.464Z,30.00
2018-08-18T14:14:07.305Z,29.80
2018-08-18T14:16:36.140Z,30.00
2018-08-18T14:19:04.977Z,30.00
2018-08-18T14:21:33.830Z,30.10
2018-08-18T14:26:32.851Z,30.40
2018-08-18T14:29:01.698Z,30.60
2018-08-18T14:31:30.547Z,30.50
2018-08-18T14:33:59.454Z,30.50
2018-08-18T14:36:28.252Z,30.30
2018-08-18T14:38:57.327Z,30.10
2018-08-18T14:43:55.384Z,30.30
2018-08-18T14:46:24.375Z,30.40
2018-08-18T14:48:53.074Z,30.40
2018-08-18T14:51:21.918Z,30.20
2018-08-18T14:53:50.761Z,30.10
2018-08-18T14:56:20.355Z,30.40
2018-08-18T14:58:50.023Z,30.50
2018-08-18T15:01:18.831Z,30.30
2018-08-18T15:03:47.666Z,30.30
2018-08-18T15:06:16.514Z,30.50
2018-08-18T15:08:45.382Z,30.50
2018-08-18T15:11:14.199Z,30.60
2018-08-18T15:13:43.054Z,30.90
2018-08-18T15:16:11.929Z,30.80
2018-08-18T15:18:40.782Z,30.70
2018-08-18T15:21:10.454Z,30.50
2018-08-18T15:23:39.240Z,30.50
2018-08-18T15:26:08.097Z,30.80
2018-08-18T15:28:36.937Z,31.00
2018-08-18T15:31:05.792Z,31.30
2018-08-18T15:33:34.631Z,31.10
2018-08-18T15:36:03.524Z,30.90
2018-08-18T15:38:32.346Z,31.10
2018-08-18T15:41:01.191Z,31.20
2018-08-18T15:43:30.076Z,31.30
2018-08-18T15:45:58.936Z,31.10
2018-08-18T15:48:27.784Z,30.90
2018-08-18T15:50:57.382Z,30.70
2018-08-18T15:53:26.220Z,30.50
2018-08-18T15:55:55.059Z,30.60
2018-08-18T15:58:23.923Z,30.70
2018-08-18T16:00:52.792Z,30.50
2018-08-18T16:03:21.636Z,30.50
2018-08-18T16:05:50.467Z,30.40
2018-08-18T16:08:19.310Z,30.50
2018-08-18T16:10:48.157Z,30.30
2018-08-18T16:13:16.995Z,30.50
2018-08-18T16:15:46.598Z,30.40
2018-08-18T16:18:16.196Z,30.50
2018-08-18T16:20:45.301Z,30.50
2018-08-18T16:23:13.903Z,30.50
2018-08-18T16:25:42.733Z,30.50
2018-08-18T16:28:11.589Z,30.50
2018-08-18T16:30:40.430Z,30.70
2018-08-18T16:33:09.293Z,30.50
2018-08-18T16:35:38.141Z,30.20
2018-08-18T16:38:06.997Z,30.20
2018-08-18T16:40:35.859Z,30.20
2018-08-18T16:43:04.828Z,30.20
2018-08-18T16:45:33.557Z,30.10
2018-08-18T16:48:02.429Z,30.20
2018-08-18T16:50:31.256Z,30.30
2018-08-18T16:53:00.127Z,30.20
2018-08-18T16:55:28.975Z,30.20
2018-08-18T16:57:58.588Z,30.10
2018-08-18T17:00:27.433Z,30.00
2018-08-18T17:02:56.275Z,29.80
2018-08-18T17:05:25.173Z,29.70
2018-08-18T17:07:54.034Z,29.70
2018-08-18T17:10:23.612Z,29.70
2018-08-18T17:12:52.472Z,29.70
2018-08-18T17:15:21.318Z,29.70
2018-08-18T17:17:50.181Z,29.60
2018-08-18T17:20:19.032Z,29.50
2018-08-18T17:22:47.880Z,29.50
2018-08-18T17:25:16.733Z,29.40
2018-08-18T17:27:45.583Z,29.30
2018-08-18T17:30:14.481Z,29.20
2018-08-18T17:32:43.324Z,29.20
2018-08-18T17:35:12.922Z,29.10
2018-08-18T17:37:41.892Z,29.00
2018-08-18T17:40:10.750Z,28.90
2018-08-18T17:42:39.609Z,28.80
2018-08-18T17:45:09.223Z,28.70
2018-08-18T17:47:38.097Z,28.70
2018-08-18T17:50:06.964Z,28.60
2018-08-18T17:52:35.885Z,28.60
2018-08-18T17:55:05.533Z,28.40
2018-08-18T17:57:34.403Z,28.40
2018-08-18T18:00:03.266Z,28.30
2018-08-18T18:02:32.126Z,28.20
2018-08-18T18:05:00.975Z,28.20
2018-08-18T18:07:30.565Z,28.10
2018-08-18T18:09:59.433Z,28.10
2018-08-18T18:12:28.287Z,28.10
2018-08-18T18:14:57.126Z,28.00
2018-08-18T18:17:25.976Z,27.90
2018-08-18T18:19:54.808Z,27.80
2018-08-18T18:22:23.665Z,27.80
2018-08-18T18:24:52.513Z,27.60
2018-08-18T18:27:22.118Z,27.60
2018-08-18T18:29:50.980Z,27.60
2018-08-18T18:32:19.855Z,27.60
2018-08-18T18:34:48.671Z,27.50
2018-08-18T18:37:17.548Z,27.40
2018-08-18T18:39:47.078Z,27.20
2018-08-18T18:42:15.362Z,27.20
2018-08-18T18:44:44.272Z,27.10
2018-08-18T18:47:13.175Z,27.00
2018-08-18T18:49:42.020Z,26.90
2018-08-18T18:52:10.908Z,26.70
2018-08-18T18:54:47.366Z,26.60
2018-08-18T18:57:16.104Z,26.50
2018-08-18T18:59:44.951Z,26.40
2018-08-18T19:02:13.811Z,26.30
2018-08-18T19:04:42.698Z,26.40
2018-08-18T19:07:12.248Z,26.40
2018-08-18T19:09:41.087Z,26.30
2018-08-18T19:12:09.948Z,26.30
2018-08-18T19:14:39.769Z,26.20
2018-08-18T19:17:08.384Z,26.20
2018-08-18T19:19:37.233Z,26.10
2018-08-18T19:22:06.633Z,26.10
2018-08-18T19:24:35.448Z,26.00
2018-08-18T19:27:05.038Z,25.90
2018-08-18T19:29:33.913Z,25.90
2018-08-18T19:32:02.741Z,25.80
2018-08-18T19:34:32.417Z,25.70
2018-08-18T19:37:01.935Z,25.70
2018-08-18T19:39:30.783Z,25.60
2018-08-18T19:41:59.654Z,25.60
2018-08-18T19:44:28.500Z,25.70
2018-08-18T19:46:57.350Z,25.60
2018-08-18T19:49:26.225Z,25.50
2018-08-18T19:51:55.125Z,25.40
2018-08-18T19:54:24.677Z,25.50
2018-08-18T19:56:53.513Z,25.40
2018-08-18T19:59:22.358Z,25.20
2018-08-18T20:01:51.224Z,25.10
2018-08-18T20:04:20.075Z,25.00
2018-08-18T20:06:48.955Z,24.90
2018-08-18T20:09:17.798Z,24.80
2018-08-18T20:11:46.665Z,24.70
2018-08-18T20:14:15.514Z,24.90
2018-08-18T20:16:45.118Z,24.90
2018-08-18T20:19:13.964Z,24.90
2018-08-18T20:21:42.847Z,24.90
2018-08-18T20:24:11.668Z,24.90
2018-08-18T20:26:40.505Z,25.00
2018-08-18T20:29:09.353Z,24.80
2018-08-18T20:31:38.198Z,24.70
2018-08-18T20:34:07.043Z,24.80
2018-08-18T20:36:35.944Z,24.70
2018-08-18T20:39:04.839Z,24.80
2018-08-18T20:41:34.449Z,24.80
2018-08-18T20:44:04.044Z,24.70
2018-08-18T20:46:33.651Z,24.60
2018-08-18T20:49:02.529Z,24.60
2018-08-18T20:51:31.371Z,24.40
2018-08-18T20:54:00.240Z,24.40
2018-08-18T20:56:29.074Z,24.50
2018-08-18T20:58:57.923Z,24.30
2018-08-18T21:01:27.522Z,24.10
2018-08-18T21:03:56.398Z,24.00
2018-08-18T21:06:25.253Z,23.90
2018-08-18T21:08:54.100Z,23.80
2018-08-18T21:11:22.966Z,23.90
2018-08-18T21:13:51.788Z,23.90
2018-08-18T21:16:20.626Z,23.80
2018-08-18T21:18:49.481Z,23.90
2018-08-18T21:21:18.322Z,23.80
2018-08-18T21:23:47.164Z,23.80
2018-08-18T21:26:16.750Z,23.70
2018-08-18T21:28:45.593Z,23.80
2018-08-18T21:31:14.441Z,23.80
2018-08-18T21:33:43.283Z,23.80
2018-08-18T21:36:12.159Z,23.80
2018-08-18T21:38:41.001Z,23.60
2018-08-18T21:41:09.864Z,23.60
2018-08-18T21:43:38.711Z,23.40
2018-08-18T21:46:08.331Z,23.40
2018-08-18T21:48:37.196Z,23.30
2018-08-18T21:51:06.039Z,23.40
2018-08-18T21:53:34.885Z,23.50
2018-08-18T21:56:03.718Z,23.40
2018-08-18T21:58:32.566Z,23.50
2018-08-18T22:01:02.150Z,23.50
2018-08-18T22:03:31.031Z,23.50
2018-08-18T22:05:59.863Z,23.30
2018-08-18T22:08:28.694Z,23.40
2018-08-18T22:10:57.612Z,23.20
2018-08-18T22:13:27.138Z,23.20
2018-08-18T22:15:56.732Z,23.10
2018-08-18T22:18:25.573Z,23.10
2018-08-18T22:20:54.432Z,23.20
2018-08-18T22:23:23.273Z,23.10
2018-08-18T22:25:52.107Z,23.00
2018-08-18T22:28:20.955Z,23.10
2018-08-18T22:30:49.796Z,23.00
2018-08-18T22:33:18.814Z,23.00
2018-08-18T22:35:47.480Z,22.90
2018-08-18T22:38:16.312Z,22.60
2018-08-18T22:40:45.150Z,22.60
2018-08-18T22:43:13.996Z,22.60
2018-08-18T22:45:42.836Z,22.60
2018-08-18T22:48:11.673Z,22.60
2018-08-18T22:50:40.524Z,22.60
2018-08-18T22:53:09.383Z,22.70
2018-08-18T22:55:38.954Z,22.70
2018-08-18T22:58:07.786Z,22.70
2018-08-18T23:00:36.629Z,22.60
2018-08-18T23:03:05.464Z,22.60
2018-08-18T23:05:34.301Z,22.60
2018-08-18T23:08:03.163Z,22.50
2018-08-18T23:10:32.026Z,22.60
2018-08-18T23:13:01.608Z,22.50
2018-08-18T23:15:30.459Z,22.40
2018-08-18T23:17:59.294Z,22.40
2018-08-18T23:20:28.249Z,22.50
2018-08-18T23:22:56.994Z,22.50
2018-08-18T23:25:26.573Z,22.40
2018-08-18T23:27:55.416Z,22.10
2018-08-18T23:30:24.250Z,22.20
2018-08-18T23:32:53.089Z,22.10
2018-08-18T23:35:21.988Z,21.90
2018-08-18T23:37:51.522Z,21.80
2018-08-18T23:40:20.373Z,21.90
2018-08-18T23:42:49.206Z,22.10
2018-08-18T23:45:18.041Z,22.10
2018-08-18T23:47:46.883Z,22.00
2018-08-18T23:50:15.724Z,22.00
2018-08-18T23:52:44.594Z,21.80
2018-08-18T23:55:14.178Z,21.70
2018-08-18T23:57:43.761Z,21.70
